Time;durP1;ratioP1;P1;durP2;ratioP2;P2;SDS_P1;SDS_P2;PMS_P1;PMS_P2;Temp;Humidity;BMP_temperature;BMP_pressure;BME280_temperature;BME280_humidity;BME280_pressure;Samples;Min_cycle;Max_cycle;Signal;HPM_P1;HPM_P2
2022/05/20 00:00:39;;;;;;;4.93;4.28;;;19.60;99.90;;;;;;5013276;28;20030;-58
2022/05/20 00:03:05;;;;;;;9.55;4.63;;;19.70;99.90;;;;;;5013607;28;20508;-58
2022/05/20 00:05:31;;;;;;;5.95;4.07;;;19.70;99.90;;;;;;5012523;28;20045;-58
2022/05/20 00:07:57;;;;;;;4.85;4.35;;;19.60;99.90;;;;;;5013568;28;20030;-59
2022/05/20 00:10:23;;;;;;;7.75;4.10;;;19.60;99.90;;;;;;5013049;28;20030;-56
2022/05/20 00:12:49;;;;;;;5.25;4.55;;;19.50;99.90;;;;;;5012230;28;20420;-59
2022/05/20 00:15:18;;;;;;;5.70;4.32;;;19.50;99.90;;;;;;5013281;28;20512;-59
2022/05/20 00:17:44;;;;;;;6.25;4.93;;;19.50;99.90;;;;;;5013045;28;20041;-57
2022/05/20 00:20:12;;;;;;;6.10;4.75;;;19.40;99.90;;;;;;5013429;28;20038;-59
2022/05/20 00:22:38;;;;;;;5.50;5.00;;;19.30;99.90;;;;;;5013009;28;20034;-55
2022/05/20 00:27:49;;;;;;;7.40;5.15;;;18.80;99.90;;;;;;5012539;28;20038;-59
2022/05/20 00:30:15;;;;;;;8.15;5.22;;;18.80;99.90;;;;;;4978878;28;20104;-58
2022/05/20 00:32:41;;;;;;;8.85;5.22;;;18.70;99.90;;;;;;5012510;28;20034;-60
2022/05/20 00:35:08;;;;;;;6.63;4.65;;;18.60;99.90;;;;;;5012805;28;20119;-52
2022/05/20 00:37:33;;;;;;;5.75;4.53;;;18.70;99.90;;;;;;5012803;28;20038;-56
2022/05/20 00:39:59;;;;;;;6.53;4.88;;;18.70;99.90;;;;;;5012474;28;20029;-58
2022/05/20 00:42:25;;;;;;;9.27;5.60;;;18.80;99.90;;;;;;5013636;28;20030;-59
2022/05/20 00:44:51;;;;;;;12.73;6.22;;;19.00;99.90;;;;;;5012462;28;20026;-56
2022/05/20 00:47:17;;;;;;;9.00;6.93;;;19.10;99.90;;;;;;5011971;28;20076;-59
2022/05/20 00:49:48;;;;;;;6.45;5.47;;;19.20;99.90;;;;;;5013477;28;20656;-58
2022/05/20 00:52:17;;;;;;;8.40;6.03;;;19.40;99.90;;;;;;5011975;28;20160;-57
2022/05/20 00:54:46;;;;;;;6.32;4.47;;;19.40;99.90;;;;;;5012850;28;20053;-58
2022/05/20 00:57:19;;;;;;;8.57;4.97;;;19.40;99.90;;;;;;5011281;28;20041;-55
2022/05/20 00:59:55;;;;;;;7.53;4.78;;;19.40;99.90;;;;;;5012704;28;20120;-59
2022/05/20 01:02:23;;;;;;;5.97;5.35;;;19.20;99.90;;;;;;5012969;28;20485;-58
2022/05/20 01:04:50;;;;;;;6.30;5.20;;;19.10;99.90;;;;;;5012651;28;20037;-59
2022/05/20 01:07:18;;;;;;;5.85;4.85;;;19.00;99.90;;;;;;4992996;28;20499;-59
2022/05/20 01:09:44;;;;;;;6.75;5.40;;;18.90;99.90;;;;;;5011384;28;20037;-58
2022/05/20 01:12:10;;;;;;;7.85;5.57;;;18.80;99.90;;;;;;5012687;28;20041;-56
2022/05/20 01:14:36;;;;;;;6.88;5.30;;;18.80;99.90;;;;;;5012055;28;20034;-59
2022/05/20 01:17:02;;;;;;;7.05;5.40;;;18.70;99.90;;;;;;5011917;28;20433;-60
2022/05/20 01:19:36;;;;;;;7.68;5.18;;;18.70;99.90;;;;;;5012839;28;20048;-56
2022/05/20 01:22:03;;;;;;;6.13;5.22;;;18.50;99.90;;;;;;5012425;28;20068;-59
2022/05/20 01:24:29;;;;;;;9.80;5.93;;;18.50;99.90;;;;;;4995304;28;20378;-56
2022/05/20 01:26:54;;;;;;;8.23;5.43;;;18.60;99.90;;;;;;5011659;28;20072;-56
2022/05/20 01:29:20;;;;;;;8.82;5.18;;;18.40;99.90;;;;;;5012186;28;20057;-56
2022/05/20 01:31:46;;;;;;;6.53;5.55;;;18.30;99.90;;;;;;4994926;28;20101;-60
2022/05/20 01:34:12;;;;;;;9.35;6.10;;;18.30;99.90;;;;;;5012689;28;20030;-58
2022/05/20 01:36:37;;;;;;;8.68;5.80;;;18.40;99.90;;;;;;5011286;28;20492;-57
2022/05/20 01:39:03;;;;;;;7.25;5.40;;;18.30;99.90;;;;;;5011754;28;20048;-59
2022/05/20 01:41:51;;;;;;;9.30;5.50;;;18.30;99.90;;;;;;4993939;28;20042;-60
2022/05/20 01:44:40;;;;;;;8.27;5.20;;;18.30;99.90;;;;;;4992549;28;20113;-58
2022/05/20 01:47:24;;;;;;;7.80;5.70;;;18.40;99.90;;;;;;5011081;28;20108;-57
2022/05/20 01:50:02;;;;;;;7.43;5.37;;;18.50;99.90;;;;;;5011589;28;20041;-60
2022/05/20 01:52:51;;;;;;;8.60;5.68;;;18.50;99.90;;;;;;4977212;28;20275;-59
2022/05/20 01:55:35;;;;;;;9.55;6.05;;;18.50;99.90;;;;;;5009145;28;20034;-59
2022/05/20 01:58:19;;;;;;;9.00;5.97;;;18.40;99.90;;;;;;5012236;28;20033;-60
2022/05/20 02:00:46;;;;;;;6.90;5.75;;;18.40;99.90;;;;;;5012658;28;20030;-59
2022/05/20 02:03:35;;;;;;;9.60;5.85;;;18.40;99.90;;;;;;5012910;28;20527;-57
2022/05/20 02:06:12;;;;;;;11.50;6.28;;;18.40;99.90;;;;;;4991784;28;20245;-60
2022/05/20 02:08:59;;;;;;;8.18;6.40;;;18.30;99.90;;;;;;4994595;28;20038;-52
2022/05/20 02:11:33;;;;;;;8.05;6.90;;;18.30;99.90;;;;;;5012162;28;20501;-58
2022/05/20 02:14:14;;;;;;;8.02;6.47;;;18.40;99.90;;;;;;5011925;28;20402;-53
2022/05/20 02:16:44;;;;;;;7.32;5.97;;;18.40;99.90;;;;;;5011046;28;20029;-59
2022/05/20 02:19:15;;;;;;;7.03;5.75;;;18.40;99.90;;;;;;5014117;28;20069;-58
2022/05/20 02:21:49;;;;;;;7.25;6.25;;;18.40;99.90;;;;;;5015346;28;20118;-57
2022/05/20 02:24:19;;;;;;;9.82;6.35;;;18.30;99.90;;;;;;5015115;28;20497;-56
2022/05/20 02:27:14;;;;;;;9.00;6.60;;;18.20;99.90;;;;;;5015053;28;20037;-56
2022/05/20 02:29:50;;;;;;;7.00;5.85;;;18.10;99.90;;;;;;5013942;28;20154;-59
2022/05/20 02:32:22;;;;;;;6.88;6.13;;;18.00;99.90;;;;;;4981101;28;20125;-60
2022/05/20 02:34:50;;;;;;;6.93;5.47;;;18.10;99.90;;;;;;4996685;28;20026;-60
2022/05/20 02:37:32;;;;;;;6.65;5.60;;;18.20;99.90;;;;;;5014451;28;20034;-58
2022/05/20 02:39:58;;;;;;;10.18;6.15;;;18.30;99.90;;;;;;5014455;28;20037;-58
2022/05/20 02:42:26;;;;;;;10.73;6.40;;;18.30;99.90;;;;;;5014230;28;20476;-57
2022/05/20 02:44:52;;;;;;;5.97;5.38;;;18.10;99.90;;;;;;5014929;28;20038;-58
2022/05/20 02:47:19;;;;;;;8.48;6.35;;;18.10;99.90;;;;;;5014159;28;20030;-58
2022/05/20 02:49:45;;;;;;;11.60;6.28;;;18.20;99.90;;;;;;5014829;28;20097;-56
2022/05/20 02:52:11;;;;;;;12.02;6.30;;;18.10;99.90;;;;;;5014126;28;20060;-59
2022/05/20 02:54:36;;;;;;;7.32;5.82;;;18.20;99.90;;;;;;5014429;28;20038;-59
2022/05/20 02:57:03;;;;;;;8.40;6.03;;;18.20;99.90;;;;;;5013912;28;20084;-58
2022/05/20 03:04:57;;;;;;;8.95;6.28;;;18.40;99.90;;;;;;5014160;28;20042;-59
2022/05/20 03:07:22;;;;;;;9.32;6.05;;;18.40;99.90;;;;;;5013045;28;20084;-58
2022/05/20 03:09:48;;;;;;;8.05;5.90;;;18.50;99.90;;;;;;5012581;28;20124;-58
2022/05/20 03:12:14;;;;;;;9.13;6.47;;;18.60;99.90;;;;;;5013728;28;20022;-57
2022/05/20 03:14:40;;;;;;;8.32;5.55;;;18.50;99.90;;;;;;5014388;28;20050;-56
2022/05/20 03:17:06;;;;;;;6.82;6.13;;;18.40;99.90;;;;;;5013244;28;20064;-59
2022/05/20 03:19:32;;;;;;;7.32;6.63;;;18.50;99.90;;;;;;5014101;28;20673;-57
2022/05/20 03:22:03;;;;;;;7.85;6.00;;;18.50;99.90;;;;;;5014431;28;20034;-52
2022/05/20 03:24:29;;;;;;;7.30;5.70;;;18.50;99.90;;;;;;5013623;28;20083;-53
2022/05/20 03:26:55;;;;;;;6.93;5.80;;;18.40;99.90;;;;;;5013706;28;20136;-54
2022/05/20 03:29:21;;;;;;;11.35;5.72;;;18.50;99.90;;;;;;5013402;28;20585;-56
2022/05/20 03:31:47;;;;;;;8.65;5.82;;;18.50;99.90;;;;;;5013256;28;20065;-58
2022/05/20 03:34:12;;;;;;;11.38;6.43;;;18.60;99.90;;;;;;5014445;28;20034;-56
2022/05/20 03:36:43;;;;;;;9.50;6.03;;;18.60;99.90;;;;;;5013496;28;20452;-58
2022/05/20 03:39:10;;;;;;;6.80;5.72;;;18.60;99.90;;;;;;5013479;28;20029;-53
2022/05/20 03:41:38;;;;;;;13.13;5.90;;;18.60;99.90;;;;;;5013210;28;20034;-56
2022/05/20 03:44:05;;;;;;;9.40;5.63;;;18.40;99.90;;;;;;5013133;28;20653;-55
2022/05/20 03:46:31;;;;;;;10.32;6.18;;;18.50;99.90;;;;;;5012433;28;20045;-55
2022/05/20 03:48:59;;;;;;;8.93;6.05;;;18.40;99.90;;;;;;5013295;28;20025;-53
2022/05/20 03:51:25;;;;;;;8.32;5.40;;;18.40;99.90;;;;;;5013323;28;20055;-55
2022/05/20 03:53:50;;;;;;;7.55;6.22;;;18.50;99.90;;;;;;5013535;28;20560;-55
2022/05/20 03:56:16;;;;;;;7.82;5.30;;;18.50;99.90;;;;;;5012899;28;20113;-56
2022/05/20 03:58:41;;;;;;;6.78;6.18;;;18.50;99.90;;;;;;5013644;28;20065;-54
2022/05/20 04:03:54;;;;;;;8.50;6.07;;;18.50;99.90;;;;;;5013429;28;20069;-56
2022/05/20 04:06:19;;;;;;;7.45;6.18;;;18.50;99.90;;;;;;5012727;28;20496;-57
2022/05/20 04:08:46;;;;;;;7.90;6.57;;;18.50;99.90;;;;;;5012892;28;20034;-56
2022/05/20 04:11:12;;;;;;;6.80;6.07;;;18.60;99.90;;;;;;5012990;28;20046;-56
2022/05/20 04:13:39;;;;;;;9.10;6.65;;;18.50;99.90;;;;;;4996380;28;20089;-57
2022/05/20 04:16:07;;;;;;;8.68;6.70;;;18.50;99.90;;;;;;5012753;28;20507;-53
2022/05/20 04:18:32;;;;;;;7.70;6.65;;;18.20;99.90;;;;;;5013461;28;20038;-57
2022/05/20 04:20:58;;;;;;;9.18;7.00;;;18.10;99.90;;;;;;5013245;28;20041;-55
2022/05/20 04:23:24;;;;;;;7.88;6.95;;;18.20;99.90;;;;;;5012563;28;20030;-54
2022/05/20 04:25:49;;;;;;;7.20;6.38;;;18.10;99.90;;;;;;5012809;28;20034;-55
2022/05/20 04:28:15;;;;;;;10.13;7.60;;;18.10;99.90;;;;;;5012912;28;20034;-52
2022/05/20 04:30:41;;;;;;;8.55;7.40;;;18.20;99.90;;;;;;5012739;28;20116;-54
2022/05/20 04:33:07;;;;;;;7.90;7.00;;;18.30;99.90;;;;;;5012515;28;20061;-55
2022/05/20 04:35:33;;;;;;;7.40;6.60;;;18.50;99.90;;;;;;5011890;28;20030;-53
2022/05/20 04:37:59;;;;;;;10.73;8.27;;;18.60;99.90;;;;;;5012280;28;20021;-56
2022/05/20 04:40:25;;;;;;;9.77;8.00;;;18.60;99.90;;;;;;5013164;28;20165;-52
2022/05/20 04:48:21;;;;;;;8.70;6.80;;;18.90;99.90;;;;;;5012680;28;20038;-57
2022/05/20 04:50:47;;;;;;;8.85;7.85;;;19.00;99.90;;;;;;5013206;28;20033;-56
2022/05/20 04:54:49;;;;;;;9.50;7.35;;;19.00;99.90;;;;;;5011388;28;20030;-55
2022/05/20 04:55:58;;;;;;;9.35;6.40;;;19.00;99.90;;;;;;5011183;28;20030;-55
2022/05/20 04:58:25;;;;;;;10.88;7.13;;;19.10;99.90;;;;;;5013110;28;20549;-52
2022/05/20 05:00:51;;;;;;;8.75;7.30;;;19.20;99.90;;;;;;5012725;28;20115;-55
2022/05/20 05:03:16;;;;;;;7.78;6.80;;;19.20;99.90;;;;;;5012918;28;20057;-56
2022/05/20 05:05:42;;;;;;;11.02;7.82;;;19.30;99.90;;;;;;5010551;28;20469;-56
2022/05/20 05:08:07;;;;;;;10.35;8.13;;;19.40;99.90;;;;;;5012925;28;20428;-54
2022/05/20 05:10:33;;;;;;;12.20;9.00;;;19.30;99.90;;;;;;5012640;28;20057;-56
2022/05/20 05:13:00;;;;;;;12.13;8.75;;;19.30;99.90;;;;;;5011964;28;20076;-57
2022/05/20 05:15:26;;;;;;;12.43;9.00;;;19.30;99.90;;;;;;5012277;28;20030;-53
2022/05/20 05:18:12;;;;;;;14.70;9.73;;;19.20;99.90;;;;;;5012941;28;20068;-53
2022/05/20 05:20:48;;;;;;;11.88;9.02;;;19.30;99.90;;;;;;5012483;28;20448;-54
2022/05/20 05:23:15;;;;;;;9.57;8.32;;;19.40;99.90;;;;;;5016779;28;20022;-53
2022/05/20 05:25:41;;;;;;;11.27;8.02;;;19.50;99.90;;;;;;5016067;28;20034;-58
2022/05/20 05:28:07;;;;;;;11.63;9.93;;;19.50;99.90;;;;;;5014102;28;20069;-57
2022/05/20 05:30:33;;;;;;;15.05;8.95;;;19.60;99.90;;;;;;5013078;28;20044;-55
2022/05/20 05:32:59;;;;;;;11.68;9.00;;;19.70;99.90;;;;;;5013158;28;20140;-57
2022/05/20 05:35:27;;;;;;;11.48;8.70;;;19.70;99.90;;;;;;5013196;28;20041;-55
2022/05/20 05:37:53;;;;;;;11.38;10.18;;;19.80;99.90;;;;;;5012991;28;20037;-55
2022/05/20 05:40:25;;;;;;;12.70;9.55;;;19.80;99.90;;;;;;5012381;28;20124;-54
2022/05/20 05:42:51;;;;;;;14.48;11.40;;;19.70;99.90;;;;;;5012297;28;20026;-52
2022/05/20 05:45:20;;;;;;;27.30;22.00;;;19.60;99.90;;;;;;5012240;28;20037;-50
2022/05/20 05:47:48;;;;;;;22.23;12.75;;;19.60;99.90;;;;;;5012181;28;20029;-56
2022/05/20 05:50:14;;;;;;;15.18;11.63;;;19.60;99.90;;;;;;5012346;28;20026;-55
2022/05/20 05:52:40;;;;;;;11.73;10.52;;;19.70;99.90;;;;;;5012868;28;20030;-58
2022/05/20 05:55:05;;;;;;;14.85;12.13;;;19.60;99.90;;;;;;5016804;28;20033;-58
2022/05/20 05:57:31;;;;;;;16.70;12.57;;;19.70;99.90;;;;;;5015860;28;20056;-58
2022/05/20 05:59:56;;;;;;;13.38;11.93;;;19.60;99.90;;;;;;5016088;28;20080;-57
2022/05/20 06:02:22;;;;;;;13.60;11.25;;;19.30;99.90;;;;;;5016052;28;20037;-56
2022/05/20 06:04:49;;;;;;;14.02;12.10;;;19.30;99.90;;;;;;5015173;28;20048;-57
2022/05/20 06:07:14;;;;;;;14.68;12.38;;;19.50;99.90;;;;;;5014693;28;20040;-58
2022/05/20 06:09:41;;;;;;;13.30;11.95;;;19.50;99.90;;;;;;5014748;28;20022;-53
2022/05/20 06:12:07;;;;;;;21.27;12.90;;;19.70;99.90;;;;;;5014923;28;20033;-56
2022/05/20 06:14:33;;;;;;;16.77;14.13;;;19.70;99.90;;;;;;5015491;28;20605;-57
2022/05/20 06:16:59;;;;;;;17.90;14.30;;;19.50;99.90;;;;;;5014733;28;20053;-58
2022/05/20 06:19:25;;;;;;;15.82;14.13;;;19.60;99.90;;;;;;5016429;28;20038;-52
2022/05/20 06:21:51;;;;;;;18.02;14.93;;;19.60;99.90;;;;;;4998576;28;20393;-56
2022/05/20 06:24:17;;;;;;;21.75;15.82;;;19.60;99.90;;;;;;4998610;28;20072;-56
2022/05/20 06:26:43;;;;;;;16.52;14.70;;;19.70;99.90;;;;;;5015876;28;20034;-58
2022/05/20 06:29:08;;;;;;;18.95;15.45;;;19.80;99.90;;;;;;5015665;28;20034;-56
2022/05/20 06:31:34;;;;;;;29.45;17.92;;;19.70;99.90;;;;;;5015226;28;20045;-57
2022/05/20 06:34:00;;;;;;;19.35;16.90;;;19.80;99.90;;;;;;5015580;28;20037;-56
2022/05/20 06:41:55;;;;;;;20.38;17.92;;;19.80;99.90;;;;;;5016301;28;20461;-57
2022/05/20 06:44:22;;;;;;;23.00;18.85;;;20.00;99.90;;;;;;5015983;28;20120;-56
2022/05/20 06:46:47;;;;;;;20.85;18.60;;;20.20;99.90;;;;;;5014844;28;20045;-57
2022/05/20 06:49:13;;;;;;;22.08;18.45;;;20.20;99.90;;;;;;5014574;28;20042;-53
2022/05/20 06:51:39;;;;;;;25.30;20.30;;;20.10;99.90;;;;;;5015248;28;20037;-54
2022/05/20 06:54:08;;;;;;;24.95;20.42;;;20.20;99.90;;;;;;5013283;28;20033;-55
2022/05/20 06:56:33;;;;;;;21.73;18.90;;;20.20;99.90;;;;;;5013721;28;20169;-57
2022/05/20 06:59:01;;;;;;;25.35;20.63;;;20.30;99.90;;;;;;5014669;28;20069;-56
2022/05/20 07:01:27;;;;;;;24.67;21.50;;;20.40;99.90;;;;;;5015033;28;20022;-57
2022/05/20 07:03:55;;;;;;;25.42;21.40;;;20.50;99.90;;;;;;5015166;28;20113;-59
2022/05/20 07:06:21;;;;;;;28.50;21.63;;;20.60;99.90;;;;;;5014147;28;20113;-57
2022/05/20 07:08:50;;;;;;;26.02;21.15;;;20.70;99.90;;;;;;5015917;28;20441;-56
2022/05/20 07:11:18;;;;;;;26.33;21.23;;;21.00;99.90;;;;;;5015839;28;20105;-55
2022/05/20 07:13:45;;;;;;;29.23;20.73;;;21.10;99.90;;;;;;5015918;28;20034;-55
2022/05/20 07:16:11;;;;;;;20.63;18.58;;;21.20;99.90;;;;;;5014745;28;20109;-52
2022/05/20 07:18:37;;;;;;;19.42;17.42;;;21.40;99.90;;;;;;4998436;28;20610;-55
2022/05/20 07:21:03;;;;;;;26.30;22.50;;;21.60;99.90;;;;;;5015598;28;20022;-51
2022/05/20 07:23:31;;;;;;;22.95;20.55;;;21.80;99.90;;;;;;5014354;28;20034;-56
2022/05/20 07:25:57;;;;;;;32.78;22.83;;;21.70;99.90;;;;;;5013881;28;20030;-49
2022/05/20 07:28:23;;;;;;;24.77;22.35;;;21.80;99.90;;;;;;5013988;28;20370;-53
2022/05/20 07:30:50;;;;;;;23.88;21.50;;;21.80;99.90;;;;;;5013619;28;20681;-50
2022/05/20 07:33:15;;;;;;;28.48;24.48;;;21.70;99.90;;;;;;5013808;28;20034;-54
2022/05/20 07:35:41;;;;;;;28.35;25.30;;;21.60;99.90;;;;;;5012915;28;20390;-54
2022/05/20 07:38:08;;;;;;;27.13;24.42;;;21.50;99.90;;;;;;5013794;28;20065;-54
2022/05/20 07:40:33;;;;;;;25.65;23.00;;;21.50;99.90;;;;;;5014701;28;20041;-51
2022/05/20 07:42:59;;;;;;;25.83;23.33;;;21.50;99.90;;;;;;5015148;28;20037;-53
2022/05/20 07:45:25;;;;;;;26.25;23.60;;;21.50;99.90;;;;;;5014314;28;20165;-51
2022/05/20 07:47:50;;;;;;;27.65;24.50;;;21.50;99.90;;;;;;5014044;28;20038;-52
2022/05/20 07:50:17;;;;;;;29.02;26.23;;;21.40;99.90;;;;;;5013987;28;20026;-55
2022/05/20 07:55:35;;;;;;;27.95;25.33;;;21.00;99.90;;;;;;5013322;28;20424;-53
2022/05/20 07:58:03;;;;;;;29.02;26.00;;;21.00;99.90;;;;;;5014473;28;20022;-51
2022/05/20 08:00:29;;;;;;;27.90;25.00;;;21.00;99.90;;;;;;5013990;28;20120;-50
2022/05/20 08:03:00;;;;;;;27.83;24.83;;;20.90;99.90;;;;;;5014231;28;20033;-48
2022/05/20 08:05:26;;;;;;;28.92;25.90;;;21.00;99.90;;;;;;5014432;28;20136;-56
2022/05/20 08:07:59;;;;;;;28.13;25.08;;;21.10;99.90;;;;;;5014669;28;20394;-49
2022/05/20 08:10:26;;;;;;;30.45;27.20;;;21.20;99.90;;;;;;5014007;28;20116;-55
2022/05/20 08:12:51;;;;;;;30.35;25.98;;;21.10;99.90;;;;;;5013697;28;20022;-56
2022/05/20 08:15:17;;;;;;;30.75;27.63;;;21.10;99.90;;;;;;5013178;28;20041;-55
2022/05/20 08:17:43;;;;;;;30.95;27.85;;;21.00;99.90;;;;;;5012800;28;20062;-51
2022/05/20 08:20:21;;;;;;;33.58;27.60;;;20.90;99.90;;;;;;5013333;28;20041;-50
2022/05/20 08:22:48;;;;;;;29.90;26.65;;;20.90;99.90;;;;;;5013183;28;20048;-52
2022/05/20 08:25:13;;;;;;;30.65;25.95;;;20.80;99.90;;;;;;5013129;28;20030;-50
2022/05/20 08:27:39;;;;;;;34.30;27.98;;;20.80;99.90;;;;;;5012835;28;20373;-51
2022/05/20 08:30:12;;;;;;;30.95;27.60;;;20.90;99.90;;;;;;5012893;28;20049;-53
2022/05/20 08:32:38;;;;;;;29.45;26.27;;;21.00;99.90;;;;;;5013221;28;20030;-50
2022/05/20 08:35:05;;;;;;;26.88;24.15;;;21.10;99.90;;;;;;5014009;28;20032;-52
2022/05/20 08:37:42;;;;;;;28.90;25.52;;;21.30;99.90;;;;;;5013776;28;20540;-49
2022/05/20 08:40:20;;;;;;;31.10;25.17;;;21.50;99.90;;;;;;5013034;28;20045;-55
2022/05/20 08:42:46;;;;;;;32.38;26.45;;;21.60;99.90;;;;;;5012751;28;20026;-52
2022/05/20 08:45:17;;;;;;;29.58;26.40;;;21.90;99.90;;;;;;5012600;28;20041;-55
2022/05/20 08:47:45;;;;;;;29.25;25.70;;;21.80;99.90;;;;;;5012785;28;20044;-52
2022/05/20 08:50:15;;;;;;;30.05;25.70;;;21.60;99.90;;;;;;5012616;28;20408;-57
2022/05/20 08:52:43;;;;;;;28.35;25.35;;;21.60;99.90;;;;;;5013349;28;20029;-55
2022/05/20 08:55:10;;;;;;;29.33;26.33;;;21.70;99.90;;;;;;5013442;28;20030;-56
2022/05/20 08:57:37;;;;;;;26.65;23.83;;;21.60;99.90;;;;;;5013875;28;20477;-52
2022/05/20 09:00:09;;;;;;;26.73;23.98;;;21.60;99.90;;;;;;5013930;28;20046;-54
2022/05/20 09:02:35;;;;;;;26.75;23.15;;;21.60;99.90;;;;;;5013214;28;20555;-52
2022/05/20 09:05:11;;;;;;;27.17;24.23;;;21.60;99.90;;;;;;5012875;28;20403;-52
2022/05/20 09:08:12;;;;;;;24.63;22.08;;;21.60;99.90;;;;;;5012639;28;20117;-53
2022/05/20 09:10:59;;;;;;;26.08;23.00;;;21.80;99.90;;;;;;4960011;28;20035;-53
2022/05/20 09:16:18;;;;;;;27.48;24.58;;;21.40;99.90;;;;;;5012028;28;20033;-48
2022/05/20 09:18:46;;;;;;;27.90;25.00;;;21.60;99.90;;;;;;4995397;28;20038;-51
2022/05/20 09:21:23;;;;;;;26.63;24.00;;;21.80;99.90;;;;;;5012671;28;20464;-53
2022/05/20 09:23:53;;;;;;;27.25;24.38;;;22.00;99.90;;;;;;4995321;28;20449;-53
2022/05/20 09:26:24;;;;;;;33.10;26.92;;;21.80;99.90;;;;;;5012795;28;20029;-54
2022/05/20 09:28:58;;;;;;;29.48;25.38;;;22.00;99.90;;;;;;5015161;28;20030;-50
2022/05/20 09:31:45;;;;;;;29.05;25.40;;;22.30;99.90;;;;;;5016261;28;20032;-53
2022/05/20 09:34:27;;;;;;;26.77;23.98;;;22.20;99.90;;;;;;5016937;28;20122;-48
2022/05/20 09:37:17;;;;;;;26.13;23.58;;;22.10;99.90;;;;;;5015629;28;20037;-50
2022/05/20 09:39:45;;;;;;;25.65;22.85;;;22.10;99.90;;;;;;5016537;28;20037;-54
2022/05/20 09:42:28;;;;;;;26.38;23.83;;;22.30;99.90;;;;;;5016946;28;20104;-51
2022/05/20 09:44:59;;;;;;;31.98;24.95;;;22.30;99.90;;;;;;5016823;28;20436;-54
2022/05/20 09:47:50;;;;;;;34.05;24.10;;;22.50;99.90;;;;;;5015643;28;20025;-51
2022/05/20 09:50:38;;;;;;;30.05;26.95;;;22.50;99.90;;;;;;5016157;28;20029;-56
2022/05/20 09:53:12;;;;;;;29.92;26.05;;;22.60;99.90;;;;;;5016831;28;20061;-57
2022/05/20 09:55:43;;;;;;;26.80;24.08;;;22.70;99.70;;;;;;5015950;28;20105;-54
2022/05/20 09:58:17;;;;;;;27.00;24.30;;;22.80;99.80;;;;;;5015811;28;20523;-49
2022/05/20 10:00:54;;;;;;;25.00;22.27;;;22.80;99.80;;;;;;5014756;28;20056;-52
2022/05/20 10:03:26;;;;;;;26.05;22.88;;;23.00;99.10;;;;;;5016665;28;20615;-58
2022/05/20 10:06:18;;;;;;;28.23;25.33;;;23.10;98.70;;;;;;5015460;28;20087;-49
2022/05/20 10:08:50;;;;;;;23.35;21.05;;;23.00;98.70;;;;;;5016143;28;20092;-51
2022/05/20 10:11:27;;;;;;;22.73;20.33;;;22.90;98.80;;;;;;5015662;28;20029;-51
2022/05/20 10:14:00;;;;;;;19.27;17.38;;;22.90;98.90;;;;;;5015627;28;20026;-53
2022/05/20 10:16:31;;;;;;;22.58;20.30;;;22.90;99.10;;;;;;5015171;28;20485;-54
2022/05/20 10:19:13;;;;;;;24.35;21.92;;;22.90;98.70;;;;;;5015458;28;20049;-55
2022/05/20 10:21:59;;;;;;;20.85;18.33;;;23.10;98.30;;;;;;5015591;28;20916;-55
2022/05/20 10:24:59;;;;;;;27.40;19.73;;;23.30;98.30;;;;;;5015856;28;20033;-57
2022/05/20 10:27:43;;;;;;;26.75;23.90;;;23.60;97.60;;;;;;5015508;28;20040;-53
2022/05/20 10:33:10;;;;;;;22.70;20.38;;;23.10;98.40;;;;;;5016211;28;20022;-49
2022/05/20 10:35:44;;;;;;;27.13;24.30;;;23.40;98.40;;;;;;4997549;28;20056;-52
2022/05/20 10:38:44;;;;;;;26.08;23.65;;;23.60;97.80;;;;;;5015232;28;20025;-54
2022/05/20 10:41:19;;;;;;;25.92;22.08;;;23.60;97.50;;;;;;5015314;28;20022;-55
2022/05/20 10:49:43;;;;;;;23.77;21.33;;;24.30;97.20;;;;;;5015222;28;20029;-51
2022/05/20 10:52:24;;;;;;;22.33;20.23;;;24.20;97.20;;;;;;5015708;28;20034;-52
2022/05/20 10:54:52;;;;;;;25.02;22.58;;;24.20;97.10;;;;;;5015134;28;20026;-51
2022/05/20 10:58:01;;;;;;;28.73;22.55;;;24.00;97.50;;;;;;5014929;28;20029;-52
2022/05/20 11:00:43;;;;;;;23.90;21.67;;;24.10;97.70;;;;;;5015587;28;20030;-50
2022/05/20 11:03:41;;;;;;;21.02;19.02;;;24.40;97.30;;;;;;5015583;28;20516;-51
2022/05/20 11:06:44;;;;;;;25.00;22.60;;;24.50;96.40;;;;;;5015633;28;20030;-50
2022/05/20 11:09:33;;;;;;;21.73;19.42;;;24.40;96.40;;;;;;5014754;28;20038;-57
2022/05/20 11:12:04;;;;;;;22.65;20.35;;;24.50;96.40;;;;;;5013697;28;20504;-54
2022/05/20 11:15:15;;;;;;;21.42;19.48;;;24.60;96.50;;;;;;5014543;28;20037;-53
2022/05/20 11:18:00;;;;;;;23.02;20.92;;;24.80;96.30;;;;;;4984242;28;20048;-51
2022/05/20 11:20:40;;;;;;;21.83;19.75;;;25.00;95.60;;;;;;5014987;28;20058;-51
2022/05/20 11:23:48;;;;;;;22.67;20.38;;;24.80;96.30;;;;;;5014927;28;20489;-48
2022/05/20 11:26:35;;;;;;;21.30;19.20;;;24.60;96.50;;;;;;5003963;28;20405;-52
2022/05/20 11:29:13;;;;;;;19.55;17.65;;;24.70;96.20;;;;;;5013966;28;20156;-50
2022/05/20 11:31:39;;;;;;;20.00;18.10;;;25.00;96.20;;;;;;5015002;28;20417;-54
2022/05/20 11:34:40;;;;;;;18.73;16.90;;;25.20;95.70;;;;;;4997236;28;20032;-55
2022/05/20 11:37:42;;;;;;;20.38;18.38;;;25.40;95.50;;;;;;5014364;28;20021;-47
2022/05/20 11:40:25;;;;;;;18.15;16.35;;;25.40;95.20;;;;;;4984925;28;20046;-55
2022/05/20 11:43:10;;;;;;;21.13;17.67;;;25.20;95.20;;;;;;5015400;28;20041;-50
2022/05/20 11:46:00;;;;;;;18.23;16.63;;;24.90;95.40;;;;;;5013244;28;20347;-54
2022/05/20 11:48:35;;;;;;;19.10;17.10;;;25.00;95.60;;;;;;5014656;28;20033;-55
2022/05/20 11:51:38;;;;;;;16.77;15.27;;;25.40;95.00;;;;;;5016317;28;20041;-51
2022/05/20 11:54:26;;;;;;;16.98;15.38;;;25.50;94.80;;;;;;5020136;28;20074;-50
2022/05/20 11:57:02;;;;;;;17.73;15.52;;;25.70;94.50;;;;;;5014098;28;20030;-51
2022/05/20 11:59:38;;;;;;;16.88;15.18;;;25.70;94.00;;;;;;5013442;28;20022;-50
2022/05/20 12:02:08;;;;;;;15.88;14.27;;;25.80;93.90;;;;;;5013315;28;20388;-52
2022/05/20 12:04:35;;;;;;;16.73;14.52;;;25.80;93.80;;;;;;5013487;28;20028;-49
2022/05/20 12:07:11;;;;;;;15.32;13.95;;;25.80;94.10;;;;;;5013117;28;20116;-53
2022/05/20 12:09:48;;;;;;;18.35;16.55;;;25.80;94.10;;;;;;5013098;28;20038;-57
2022/05/20 12:12:33;;;;;;;16.75;15.30;;;25.20;94.40;;;;;;5013935;28;20409;-55
2022/05/20 12:15:14;;;;;;;;;;;25.20;94.70;;;;;;5014327;28;20022;-53
2022/05/20 12:17:43;;;;;;;17.42;15.43;;;25.20;95.20;;;;;;5013196;28;19917;-53
2022/05/20 12:26:11;;;;;;;17.75;15.93;;;25.40;94.40;;;;;;5015110;28;20029;-55
2022/05/20 12:28:39;;;;;;;23.20;17.20;;;25.60;94.30;;;;;;5001317;28;20415;-50
2022/05/20 12:31:07;;;;;;;20.75;15.57;;;25.60;94.20;;;;;;5013646;28;20540;-53
2022/05/20 12:34:03;;;;;;;21.45;15.93;;;25.40;94.40;;;;;;5013839;28;20036;-52
2022/05/20 12:36:28;;;;;;;19.88;14.82;;;25.30;94.40;;;;;;5010158;28;20049;-54
2022/05/20 12:39:06;;;;;;;14.80;13.10;;;25.50;94.60;;;;;;5013014;28;20026;-53
2022/05/20 12:41:50;;;;;;;21.30;18.05;;;25.70;94.60;;;;;;5014216;28;20577;-55
2022/05/20 12:44:21;;;;;;;19.42;15.98;;;26.10;93.90;;;;;;4993692;28;20030;-55
2022/05/20 12:47:05;;;;;;;16.90;15.35;;;26.10;93.60;;;;;;4992446;28;20030;-56
2022/05/20 12:49:46;;;;;;;16.67;15.02;;;26.70;93.20;;;;;;4992824;28;20548;-59
2022/05/20 12:52:17;;;;;;;13.13;11.73;;;26.80;92.60;;;;;;4993538;28;20039;-58
2022/05/20 12:55:09;;;;;;;12.65;11.55;;;26.80;92.70;;;;;;4993096;28;20038;-55
2022/05/20 12:57:35;;;;;;;15.68;13.30;;;27.10;92.90;;;;;;4984400;28;20092;-57
2022/05/20 13:00:04;;;;;;;15.48;12.45;;;27.30;92.10;;;;;;4993525;28;20165;-53
2022/05/20 13:02:36;;;;;;;13.93;12.52;;;27.20;91.70;;;;;;4992396;28;20398;-57
2022/05/20 13:05:11;;;;;;;16.80;15.18;;;27.10;92.40;;;;;;4992807;28;20034;-52
2022/05/20 13:07:39;;;;;;;15.65;14.15;;;26.90;92.20;;;;;;4993435;28;20398;-57
2022/05/20 13:10:44;;;;;;;16.13;14.52;;;26.80;92.00;;;;;;4982701;28;20033;-56
2022/05/20 13:13:20;;;;;;;14.38;13.15;;;26.80;92.40;;;;;;4933515;29;20035;-56
2022/05/20 13:16:09;;;;;;;14.88;13.35;;;26.90;92.20;;;;;;4932843;29;20048;-54
2022/05/20 13:18:43;;;;;;;13.73;12.50;;;27.00;91.80;;;;;;4988105;28;20501;-57
2022/05/20 13:21:19;;;;;;;16.05;13.85;;;27.30;91.60;;;;;;5012767;28;20554;-58
2022/05/20 13:23:48;;;;;;;13.35;12.15;;;27.30;91.30;;;;;;5012843;28;20038;-55
2022/05/20 13:26:25;;;;;;;14.85;13.27;;;27.40;91.30;;;;;;5011623;28;20042;-57
2022/05/20 13:28:51;;;;;;;13.98;12.57;;;27.70;90.70;;;;;;5013897;28;20060;-51
2022/05/20 13:31:22;;;;;;;12.18;11.07;;;27.70;91.00;;;;;;5013559;28;20377;-58
2022/05/20 13:33:49;;;;;;;15.18;12.23;;;27.70;91.30;;;;;;5012025;28;20030;-56
2022/05/20 13:36:19;;;;;;;12.85;11.55;;;27.70;91.40;;;;;;5012724;28;20022;-53
2022/05/20 13:38:58;;;;;;;13.25;11.85;;;27.90;91.20;;;;;;5013227;28;20486;-52
2022/05/20 13:41:31;;;;;;;15.15;13.63;;;28.30;90.80;;;;;;5012490;28;20022;-53